createdAt,value
2023-01-19T00:01:14.059Z,11.60
2023-01-19T00:03:42.615Z,11.80
2023-01-19T00:06:13.426Z,14.00
2023-01-19T00:08:41.704Z,12.60
2023-01-19T00:11:09.923Z,15.90
2023-01-19T00:13:39.316Z,17.10
2023-01-19T00:16:07.961Z,12.10
2023-01-19T00:18:36.116Z,14.30
2023-01-19T00:21:04.503Z,10.70
2023-01-19T00:23:34.277Z,11.40
2023-01-19T00:26:02.412Z,9.40
2023-01-19T00:28:30.609Z,7.30
2023-01-19T00:30:58.854Z,6.70
2023-01-19T00:33:26.983Z,8.50
2023-01-19T00:35:55.196Z,15.60
2023-01-19T00:38:23.676Z,10.20
2023-01-19T00:40:51.860Z,10.30
2023-01-19T00:43:22.231Z,14.40
2023-01-19T00:45:50.543Z,12.20
2023-01-19T00:48:18.742Z,10.70
2023-01-19T00:50:49.277Z,9.30
2023-01-19T00:53:17.501Z,11.80
2023-01-19T00:55:45.667Z,11.40
2023-01-19T00:58:14.915Z,13.70
2023-01-19T01:00:43.384Z,11.00
2023-01-19T01:03:11.796Z,9.10
2023-01-19T01:05:43.089Z,8.40
2023-01-19T01:08:11.304Z,9.70
2023-01-19T01:10:39.469Z,9.80
2023-01-19T01:13:21.378Z,8.80
2023-01-19T01:15:52.209Z,9.00
2023-01-19T01:18:20.961Z,14.80
2023-01-19T01:20:49.229Z,11.00
2023-01-19T01:23:23.358Z,11.40
2023-01-19T01:25:51.632Z,11.00
2023-01-19T01:28:19.869Z,8.70
2023-01-19T01:30:48.267Z,12.40
2023-01-19T01:33:40.562Z,10.60
2023-01-19T01:36:05.290Z,12.80
2023-01-19T01:38:33.578Z,8.40
2023-01-19T01:41:01.782Z,8.00
2023-01-19T01:43:58.654Z,11.20
2023-01-19T01:46:29.354Z,8.90
2023-01-19T01:49:00.630Z,11.60
2023-01-19T01:51:38.079Z,9.20
2023-01-19T01:54:13.765Z,9.60
2023-01-19T01:56:45.356Z,11.90
2023-01-19T01:59:39.447Z,6.50
2023-01-19T02:02:35.196Z,11.20
2023-01-19T02:05:09.545Z,6.90
2023-01-19T02:08:13.642Z,11.90
2023-01-19T02:11:03.285Z,10.30
2023-01-19T02:13:33.745Z,12.00
2023-01-19T02:16:06.531Z,7.50
2023-01-19T02:18:35.310Z,13.40
2023-01-19T02:21:12.397Z,10.60
2023-01-19T02:23:48.730Z,8.80
2023-01-19T02:26:21.457Z,14.20
2023-01-19T02:29:03.237Z,11.00
2023-01-19T02:34:05.487Z,11.40
2023-01-19T02:36:41.376Z,16.00
2023-01-19T02:39:11.097Z,9.80
2023-01-19T02:41:44.927Z,7.10
2023-01-19T02:44:14.650Z,10.40
2023-01-19T02:46:45.523Z,9.40
2023-01-19T02:49:13.897Z,7.20
2023-01-19T02:51:44.647Z,10.60
2023-01-19T02:54:36.785Z,12.00
2023-01-19T02:57:19.395Z,11.60
2023-01-19T03:00:10.876Z,9.60
2023-01-19T03:02:56.139Z,9.60
2023-01-19T03:05:30.560Z,9.80
2023-01-19T03:08:17.827Z,8.90
2023-01-19T03:11:08.553Z,8.70
2023-01-19T03:14:00.967Z,10.40
2023-01-19T03:16:38.942Z,6.00
2023-01-19T03:19:17.999Z,10.10
2023-01-19T03:21:49.718Z,12.10
2023-01-19T03:24:22.364Z,10.90
2023-01-19T03:27:02.593Z,7.10
2023-01-19T03:29:37.656Z,10.40
2023-01-19T03:32:11.498Z,9.60
2023-01-19T03:34:42.635Z,10.30
2023-01-19T03:37:11.817Z,7.50
2023-01-19T03:39:42.962Z,10.90
2023-01-19T03:42:15.571Z,12.30
2023-01-19T03:44:46.567Z,10.50
2023-01-19T03:47:15.399Z,14.10
2023-01-19T03:49:46.737Z,16.50
2023-01-19T03:52:14.951Z,7.80
2023-01-19T03:54:52.927Z,14.00
2023-01-19T03:57:46.550Z,12.50
2023-01-19T04:00:38.522Z,8.40
2023-01-19T04:03:14.438Z,14.50
2023-01-19T04:05:44.774Z,11.20
2023-01-19T04:08:13.402Z,12.10
2023-01-19T04:10:43.801Z,7.90
2023-01-19T04:13:12.076Z,8.40
2023-01-19T04:15:40.343Z,17.40
2023-01-19T04:18:10.542Z,10.50
2023-01-19T04:20:39.033Z,12.20
2023-01-19T04:23:09.686Z,7.00
2023-01-19T04:25:38.966Z,12.20
2023-01-19T04:28:07.354Z,8.90
2023-01-19T04:30:35.626Z,8.70
2023-01-19T04:33:04.259Z,10.30
2023-01-19T04:35:34.565Z,6.50
2023-01-19T04:38:02.788Z,13.10
2023-01-19T04:40:31.073Z,12.70
2023-01-19T04:42:59.593Z,11.30
2023-01-19T04:45:28.014Z,17.50
2023-01-19T04:47:56.463Z,8.10
2023-01-19T04:50:25.164Z,18.50
2023-01-19T04:52:53.512Z,16.70
2023-01-19T04:55:21.718Z,14.90
2023-01-19T04:57:50.196Z,14.50
2023-01-19T05:00:19.040Z,14.60
2023-01-19T05:02:47.976Z,15.70
2023-01-19T05:05:16.886Z,8.30
2023-01-19T05:07:45.332Z,11.40
2023-01-19T05:10:13.948Z,16.50
2023-01-19T05:12:42.493Z,17.70
2023-01-19T05:15:13.767Z,20.20
2023-01-19T05:17:43.174Z,18.60
2023-01-19T05:20:16.585Z,16.90
2023-01-19T05:22:56.008Z,19.50
2023-01-19T05:25:25.435Z,13.80
2023-01-19T05:27:53.697Z,11.40
2023-01-19T05:30:24.693Z,15.40
2023-01-19T05:32:52.991Z,22.50
2023-01-19T05:35:31.352Z,19.90
2023-01-19T05:38:04.733Z,16.60
2023-01-19T05:40:33.714Z,15.60
2023-01-19T05:43:05.435Z,11.40
2023-01-19T05:45:34.585Z,15.60
2023-01-19T05:48:02.907Z,12.20
2023-01-19T05:50:31.742Z,14.30
2023-01-19T05:53:01.045Z,22.30
2023-01-19T05:55:30.073Z,17.20
2023-01-19T05:57:59.955Z,15.50
2023-01-19T06:00:28.261Z,27.20
2023-01-19T06:02:56.564Z,16.00
2023-01-19T06:05:24.870Z,11.50
2023-01-19T06:07:53.156Z,15.00
2023-01-19T06:10:24.251Z,16.00
2023-01-19T06:12:53.980Z,13.60
2023-01-19T06:15:23.062Z,14.70
2023-01-19T06:17:51.244Z,13.20
2023-01-19T06:20:19.532Z,15.70
2023-01-19T06:22:48.321Z,18.40
2023-01-19T06:25:16.787Z,13.80
2023-01-19T06:27:46.316Z,13.10
2023-01-19T06:30:17.760Z,19.80
2023-01-19T06:32:46.094Z,15.40
2023-01-19T06:35:14.637Z,10.90
2023-01-19T06:37:42.918Z,23.20
2023-01-19T06:40:13.729Z,33.50
2023-01-19T06:42:42.989Z,33.70
2023-01-19T06:45:12.333Z,16.70
2023-01-19T06:47:42.928Z,18.40
2023-01-19T06:50:11.634Z,14.50
2023-01-19T06:52:42.812Z,20.70
2023-01-19T06:55:12.242Z,20.80
2023-01-19T06:57:40.799Z,21.20
2023-01-19T07:00:13.313Z,16.60
2023-01-19T07:02:43.724Z,23.90
2023-01-19T07:05:14.578Z,19.50
2023-01-19T07:07:44.999Z,19.60
2023-01-19T07:10:16.579Z,15.00
2023-01-19T07:12:48.116Z,21.60
2023-01-19T07:15:20.007Z,18.10
2023-01-19T07:17:49.383Z,18.60
2023-01-19T07:20:20.180Z,15.40
2023-01-19T07:22:56.473Z,14.10
2023-01-19T07:25:24.749Z,17.50
2023-01-19T07:27:56.897Z,17.90
2023-01-19T07:30:25.535Z,11.70
2023-01-19T07:32:58.447Z,28.00
2023-01-19T07:35:27.337Z,13.60
2023-01-19T07:37:55.592Z,26.70
2023-01-19T07:40:24.142Z,17.20
2023-01-19T07:42:52.483Z,19.60
2023-01-19T07:45:21.366Z,15.70
2023-01-19T07:47:49.932Z,13.00
2023-01-19T07:50:21.697Z,14.80
2023-01-19T07:52:53.290Z,15.00
2023-01-19T07:55:22.410Z,17.10
2023-01-19T07:57:51.917Z,22.80
2023-01-19T08:00:24.785Z,16.90
2023-01-19T08:02:54.139Z,16.40
2023-01-19T08:05:22.451Z,16.00
2023-01-19T08:07:52.679Z,15.10
2023-01-19T08:10:26.049Z,11.80
2023-01-19T08:12:57.826Z,14.70
2023-01-19T08:15:26.325Z,16.80
2023-01-19T08:17:59.681Z,15.30
2023-01-19T08:20:29.341Z,17.40
2023-01-19T08:23:03.375Z,12.10
2023-01-19T08:25:36.260Z,18.20
2023-01-19T08:28:07.063Z,19.80
2023-01-19T08:30:36.036Z,15.90
2023-01-19T08:33:04.663Z,14.90
2023-01-19T08:35:37.665Z,16.60
2023-01-19T08:38:09.799Z,17.70
2023-01-19T08:40:41.363Z,15.90
2023-01-19T08:43:15.172Z,15.10
2023-01-19T08:45:50.206Z,20.80
2023-01-19T08:48:22.427Z,17.00
2023-01-19T08:50:52.370Z,14.00
2023-01-19T08:53:23.819Z,12.70
2023-01-19T08:56:03.680Z,11.00
2023-01-19T08:58:32.004Z,8.40
2023-01-19T09:01:01.491Z,12.20
2023-01-19T09:03:31.354Z,17.30
2023-01-19T09:06:05.173Z,15.80
2023-01-19T09:08:35.092Z,12.40
2023-01-19T09:11:03.390Z,12.90
2023-01-19T09:13:32.443Z,20.00
2023-01-19T09:16:03.868Z,14.40
2023-01-19T09:18:32.263Z,8.60
2023-01-19T09:21:01.658Z,7.60
2023-01-19T09:23:31.595Z,17.80
2023-01-19T09:26:02.507Z,10.10
2023-01-19T09:28:39.933Z,13.00
2023-01-19T09:31:09.858Z,13.70
2023-01-19T09:33:38.160Z,11.70
2023-01-19T09:36:06.834Z,19.00
2023-01-19T09:38:37.365Z,22.20
2023-01-19T09:41:21.376Z,13.00
2023-01-19T09:43:57.484Z,14.10
2023-01-19T09:46:29.493Z,14.20
2023-01-19T09:49:09.087Z,10.30
2023-01-19T09:51:41.352Z,15.90
2023-01-19T09:54:17.620Z,19.90
2023-01-19T09:56:49.274Z,12.10
2023-01-19T09:59:29.101Z,19.20
2023-01-19T10:02:14.737Z,12.90
2023-01-19T10:04:52.550Z,21.00
2023-01-19T10:07:33.340Z,16.90
2023-01-19T10:10:04.715Z,11.60
2023-01-19T10:13:02.165Z,14.80
2023-01-19T10:15:53.317Z,22.70
2023-01-19T10:18:33.435Z,10.70
2023-01-19T10:21:13.252Z,19.50
2023-01-19T10:23:56.440Z,16.90
2023-01-19T10:26:27.394Z,21.10
2023-01-19T10:29:05.707Z,17.70
2023-01-19T10:31:40.493Z,13.80
2023-01-19T10:34:23.373Z,14.40
2023-01-19T10:37:01.797Z,21.70
2023-01-19T10:39:30.548Z,9.90
2023-01-19T10:42:04.257Z,12.90
2023-01-19T10:44:37.354Z,14.00
2023-01-19T10:47:14.015Z,14.40
2023-01-19T10:49:44.864Z,16.70
2023-01-19T10:52:33.805Z,11.80
2023-01-19T10:55:07.936Z,15.20
2023-01-19T10:57:40.983Z,9.80
2023-01-19T11:00:38.313Z,12.10
2023-01-19T11:03:31.117Z,10.20
2023-01-19T11:06:14.949Z,12.80
2023-01-19T11:08:45.037Z,13.50
2023-01-19T11:11:15.550Z,14.60
2023-01-19T11:13:44.440Z,14.60
2023-01-19T11:16:30.862Z,14.90
2023-01-19T11:19:02.255Z,14.00
2023-01-19T11:21:33.241Z,23.40
2023-01-19T11:24:05.582Z,12.80
2023-01-19T11:26:41.110Z,13.40
2023-01-19T11:29:23.935Z,7.00
2023-01-19T11:31:54.257Z,14.80
2023-01-19T11:34:27.498Z,16.40
2023-01-19T11:37:25.414Z,12.00
2023-01-19T11:39:59.308Z,8.70
2023-01-19T11:42:31.341Z,14.80
2023-01-19T11:45:25.579Z,18.80
2023-01-19T11:47:57.503Z,11.70
2023-01-19T11:50:31.951Z,14.80
2023-01-19T11:53:24.483Z,10.50
2023-01-19T11:56:11.269Z,13.80
2023-01-19T11:58:43.360Z,15.90
2023-01-19T12:01:48.096Z,20.50
2023-01-19T12:04:27.787Z,14.00
2023-01-19T12:06:59.991Z,24.90
2023-01-19T12:09:35.342Z,16.40
2023-01-19T12:12:05.380Z,17.30
2023-01-19T12:14:41.448Z,14.10
2023-01-19T12:17:18.908Z,16.10
2023-01-19T12:19:55.215Z,12.40
2023-01-19T12:22:24.382Z,17.00
2023-01-19T12:25:14.260Z,19.80
2023-01-19T12:27:46.907Z,16.10
2023-01-19T12:30:44.866Z,13.10
2023-01-19T12:33:48.959Z,15.40
2023-01-19T12:36:17.388Z,17.90
2023-01-19T12:39:10.333Z,15.20
2023-01-19T12:41:40.449Z,16.70
2023-01-19T12:44:11.862Z,11.90
2023-01-19T12:47:03.586Z,20.00
2023-01-19T12:49:37.889Z,20.80
2023-01-19T12:52:14.654Z,12.50
2023-01-19T12:55:15.224Z,17.40
2023-01-19T12:58:20.711Z,9.20
2023-01-19T13:01:13.768Z,13.00
2023-01-19T13:03:44.157Z,18.50
2023-01-19T13:06:12.937Z,15.90
2023-01-19T13:09:00.006Z,9.10
2023-01-19T13:11:34.367Z,17.10
2023-01-19T13:14:04.694Z,13.30
2023-01-19T13:17:17.499Z,15.90
2023-01-19T13:20:46.937Z,15.30
2023-01-19T13:23:28.012Z,23.20
2023-01-19T13:26:08.873Z,26.40
2023-01-19T13:28:43.558Z,22.80
2023-01-19T13:31:13.676Z,25.60
2023-01-19T13:33:57.442Z,13.10
2023-01-19T13:36:37.984Z,23.90
2023-01-19T13:39:17.065Z,17.80
2023-01-19T13:41:48.012Z,22.50
2023-01-19T13:44:27.999Z,17.10
2023-01-19T13:46:59.931Z,41.90
2023-01-19T13:49:36.598Z,11.60
2023-01-19T13:52:28.803Z,17.40
2023-01-19T13:55:02.502Z,30.70
2023-01-19T13:57:54.779Z,11.40
2023-01-19T14:00:34.203Z,21.90
2023-01-19T14:03:19.446Z,15.70
2023-01-19T14:05:51.952Z,24.10
2023-01-19T14:08:21.322Z,18.90
2023-01-19T14:10:56.514Z,21.80
2023-01-19T14:13:37.417Z,16.90
2023-01-19T14:16:15.009Z,20.80
2023-01-19T14:18:43.299Z,16.00
2023-01-19T14:21:16.064Z,19.30
2023-01-19T14:23:50.404Z,18.00
2023-01-19T14:26:37.802Z,15.60
2023-01-19T14:29:22.055Z,17.40
2023-01-19T14:32:03.930Z,15.70
2023-01-19T14:34:46.372Z,14.00
2023-01-19T14:37:28.342Z,18.10
2023-01-19T14:40:04.983Z,16.10
2023-01-19T14:42:37.674Z,22.00
2023-01-19T14:45:21.833Z,28.40
2023-01-19T14:50:33.426Z,32.20
2023-01-19T14:53:07.811Z,18.40
2023-01-19T14:55:46.829Z,15.10
2023-01-19T14:58:17.183Z,28.80
2023-01-19T15:00:47.855Z,17.80
2023-01-19T15:03:16.351Z,16.40
2023-01-19T15:05:46.871Z,24.70
2023-01-19T15:08:24.592Z,14.30
2023-01-19T15:10:55.676Z,12.60
2023-01-19T15:13:27.049Z,16.80
2023-01-19T15:15:55.385Z,21.40
2023-01-19T15:18:27.075Z,24.00
2023-01-19T15:20:55.597Z,21.20
2023-01-19T15:23:23.871Z,30.30
2023-01-19T15:25:52.756Z,23.90
2023-01-19T15:28:21.021Z,21.20
2023-01-19T15:30:49.265Z,23.20
2023-01-19T15:33:23.765Z,18.30
2023-01-19T15:35:52.868Z,19.40
2023-01-19T15:38:22.584Z,27.80
2023-01-19T15:40:53.883Z,33.80
2023-01-19T15:43:22.095Z,28.20
2023-01-19T15:46:02.800Z,24.30
2023-01-19T15:49:14.793Z,33.90
2023-01-19T15:51:43.529Z,20.00
2023-01-19T15:54:17.291Z,75.40
2023-01-19T15:56:45.638Z,27.60
2023-01-19T15:59:13.874Z,24.10
2023-01-19T16:01:42.798Z,20.90
2023-01-19T16:04:12.063Z,29.50
2023-01-19T16:06:42.714Z,27.30
2023-01-19T16:09:14.222Z,36.20
2023-01-19T16:11:42.446Z,21.20
2023-01-19T16:14:10.752Z,25.70
2023-01-19T16:16:39.158Z,26.10
2023-01-19T16:19:07.564Z,20.70
2023-01-19T16:21:35.909Z,28.10
2023-01-19T16:24:04.295Z,26.60
2023-01-19T16:26:35.273Z,32.00
2023-01-19T16:29:11.078Z,40.50
2023-01-19T16:31:41.264Z,23.00
2023-01-19T16:34:10.422Z,38.50
2023-01-19T16:36:46.131Z,28.50
2023-01-19T16:39:17.114Z,27.80
2023-01-19T16:41:46.104Z,28.10
2023-01-19T16:44:16.437Z,20.50
2023-01-19T16:46:46.891Z,29.10
2023-01-19T16:49:21.462Z,30.10
2023-01-19T16:51:55.073Z,26.80
2023-01-19T16:54:28.510Z,20.40
2023-01-19T16:56:57.780Z,28.40
2023-01-19T16:59:29.307Z,22.50
2023-01-19T17:01:58.464Z,24.80
2023-01-19T17:04:27.512Z,33.50
2023-01-19T17:06:56.062Z,34.40
2023-01-19T17:09:24.237Z,43.70
2023-01-19T17:11:52.459Z,20.40
2023-01-19T17:14:21.198Z,17.70
2023-01-19T17:16:49.850Z,20.90
2023-01-19T17:19:22.341Z,25.90
2023-01-19T17:21:50.758Z,18.40
2023-01-19T17:24:24.102Z,27.60
2023-01-19T17:26:52.358Z,48.40
2023-01-19T17:29:22.624Z,62.30
2023-01-19T17:31:53.625Z,135.80
2023-01-19T17:34:21.833Z,142.90
2023-01-19T17:36:51.588Z,280.20
2023-01-19T17:39:19.810Z,55.80
2023-01-19T17:41:50.220Z,60.80
2023-01-19T17:44:18.693Z,59.80
2023-01-19T17:46:46.888Z,31.20
2023-01-19T17:49:15.312Z,20.00
2023-01-19T17:51:43.649Z,29.70
2023-01-19T17:54:12.685Z,33.20
2023-01-19T17:56:41.512Z,21.50
2023-01-19T17:59:09.960Z,22.30
2023-01-19T18:01:40.769Z,17.80
2023-01-19T18:04:09.772Z,13.20
2023-01-19T18:06:39.032Z,21.80
2023-01-19T18:09:08.754Z,21.00
2023-01-19T18:11:37.853Z,25.50
2023-01-19T18:14:06.883Z,17.40
2023-01-19T18:16:36.103Z,29.20
2023-01-19T18:19:05.690Z,24.50
2023-01-19T18:21:36.123Z,26.50
2023-01-19T18:24:06.903Z,15.20
2023-01-19T18:26:35.691Z,27.10
2023-01-19T18:29:04.324Z,21.70
2023-01-19T18:31:32.672Z,43.60
2023-01-19T18:34:01.135Z,23.30
2023-01-19T18:36:32.274Z,21.80
2023-01-19T18:39:01.626Z,25.50
2023-01-19T18:41:30.512Z,32.20
2023-01-19T18:43:59.867Z,24.60
2023-01-19T18:46:28.219Z,32.40
2023-01-19T18:51:30.841Z,25.30
2023-01-19T18:54:01.475Z,30.60
2023-01-19T18:56:29.788Z,50.90
2023-01-19T18:58:58.050Z,29.40
2023-01-19T19:01:33.487Z,33.20
2023-01-19T19:04:01.965Z,21.60
2023-01-19T19:06:30.228Z,24.50
2023-01-19T19:08:59.668Z,27.20
2023-01-19T19:11:30.666Z,35.00
2023-01-19T19:14:01.652Z,32.80
2023-01-19T19:16:31.654Z,28.70
2023-01-19T19:19:02.001Z,28.60
2023-01-19T19:21:31.577Z,21.50
2023-01-19T19:24:01.284Z,28.80
2023-01-19T19:26:31.669Z,45.30
2023-01-19T19:29:03.769Z,23.60
2023-01-19T19:31:34.799Z,20.50
2023-01-19T19:34:05.480Z,26.00
2023-01-19T19:36:33.760Z,18.80
2023-01-19T19:39:02.529Z,24.10
2023-01-19T19:41:32.615Z,32.30
2023-01-19T19:44:00.856Z,20.30
2023-01-19T19:46:29.202Z,23.70
2023-01-19T19:48:57.524Z,18.40
2023-01-19T19:51:27.848Z,32.00
2023-01-19T19:53:59.201Z,22.80
2023-01-19T19:56:31.550Z,18.90
2023-01-19T19:58:59.932Z,22.50
2023-01-19T20:01:32.795Z,28.10
2023-01-19T20:04:09.000Z,25.00
2023-01-19T20:06:40.546Z,25.60
2023-01-19T20:09:10.920Z,23.40
2023-01-19T20:11:39.242Z,23.20
2023-01-19T20:14:11.473Z,20.10
2023-01-19T20:16:41.209Z,26.90
2023-01-19T20:19:09.532Z,31.60
2023-01-19T20:21:42.062Z,20.30
2023-01-19T20:24:20.080Z,27.40
2023-01-19T20:26:51.444Z,23.20
2023-01-19T20:29:20.516Z,24.30
2023-01-19T20:31:55.697Z,16.60
2023-01-19T20:36:55.075Z,22.10
2023-01-19T20:39:26.157Z,20.70
2023-01-19T20:41:54.394Z,21.60
2023-01-19T20:44:24.865Z,18.70
2023-01-19T20:46:55.262Z,13.60
2023-01-19T20:49:23.956Z,11.90
2023-01-19T20:51:52.377Z,22.80
2023-01-19T20:54:24.761Z,14.60
2023-01-19T20:56:52.935Z,20.00
2023-01-19T20:59:21.297Z,14.50
2023-01-19T21:01:51.037Z,11.90
2023-01-19T21:04:21.367Z,14.20
2023-01-19T21:06:49.702Z,13.70
2023-01-19T21:09:19.447Z,9.10
2023-01-19T21:11:47.760Z,6.90
2023-01-19T21:14:15.892Z,15.70
2023-01-19T21:16:45.687Z,4.00
2023-01-19T21:19:13.960Z,5.60
2023-01-19T21:21:42.308Z,15.70
2023-01-19T21:24:11.242Z,6.90
2023-01-19T21:26:39.635Z,7.90
2023-01-19T21:29:13.566Z,9.00
2023-01-19T21:31:41.962Z,6.60
2023-01-19T21:34:10.311Z,12.50
2023-01-19T21:36:38.616Z,10.80
2023-01-19T21:39:08.299Z,20.70
2023-01-19T21:41:40.157Z,19.80
2023-01-19T21:44:08.646Z,13.30
2023-01-19T21:46:39.788Z,11.10
2023-01-19T21:49:18.587Z,8.50
2023-01-19T21:51:48.102Z,5.30
2023-01-19T21:54:17.494Z,6.40
2023-01-19T21:56:45.819Z,9.90
2023-01-19T21:59:15.924Z,6.60
2023-01-19T22:01:45.615Z,4.20
2023-01-19T22:04:16.130Z,3.40
2023-01-19T22:06:44.405Z,8.20
2023-01-19T22:09:12.792Z,7.40
2023-01-19T22:11:41.287Z,9.30
2023-01-19T22:14:10.932Z,6.30
2023-01-19T22:16:39.225Z,5.20
2023-01-19T22:19:13.166Z,6.40
2023-01-19T22:21:41.381Z,7.80
2023-01-19T22:24:09.670Z,10.00
2023-01-19T22:26:37.965Z,12.60
2023-01-19T22:29:11.387Z,8.60
2023-01-19T22:31:40.789Z,12.20
2023-01-19T22:34:11.025Z,6.30
2023-01-19T22:36:39.456Z,11.40
2023-01-19T22:39:10.659Z,16.60
2023-01-19T22:41:42.205Z,9.50
2023-01-19T22:44:15.308Z,11.90
2023-01-19T22:46:44.444Z,8.70
2023-01-19T22:49:14.740Z,10.50
2023-01-19T22:51:43.219Z,11.80
2023-01-19T22:54:11.979Z,13.10
2023-01-19T22:56:40.682Z,6.50
2023-01-19T22:59:09.471Z,9.90
2023-01-19T23:01:42.339Z,7.10
2023-01-19T23:04:15.926Z,7.40
2023-01-19T23:06:50.457Z,7.10
2023-01-19T23:09:20.678Z,11.50
2023-01-19T23:11:50.900Z,9.10
2023-01-19T23:14:21.863Z,11.20
2023-01-19T23:16:51.794Z,9.80
2023-01-19T23:19:20.236Z,6.40
2023-01-19T23:21:51.099Z,16.50
2023-01-19T23:24:19.377Z,6.10
2023-01-19T23:26:49.565Z,7.10
2023-01-19T23:29:18.269Z,5.60
2023-01-19T23:31:49.046Z,5.80
2023-01-19T23:34:17.596Z,10.10
2023-01-19T23:36:48.801Z,5.00
2023-01-19T23:39:21.880Z,4.10
2023-01-19T23:41:50.668Z,7.00
2023-01-19T23:44:20.744Z,4.20
2023-01-19T23:46:49.077Z,5.50
2023-01-19T23:49:18.408Z,7.70
2023-01-19T23:51:48.779Z,5.10
2023-01-19T23:54:20.116Z,9.20
2023-01-19T23:56:48.396Z,7.90
2023-01-19T23:59:16.829Z,8.50
